<?xml version="1.0" encoding="UTF-8" standalone="no" ?>
<gpx xmlns="http://www.topografix.com/GPX/1/1" xmlns:xsi="http://www.w3.org/2001/XMLSchema-instance" xsi:schemaLocation="http://www.topografix.com/GPX/1/1 http://www.topografix.com/GPX/1/1/gpx.xsd" version="1.1" creator="VisuGPX - https://www.visugpx.com">
  <metadata>
    <name>11383707-sentier des orchidées</name>
  </metadata>
  <trk>
    <name><![CDATA[11383707-sentier des orchidées]]></name>
    <trkseg>
      <trkpt lat="46.67003" lon="4.63987">
        <ele>328</ele>
        <time>2020-05-30T04:54:16Z</time>
      </trkpt>
      <trkpt lat="46.67001" lon="4.63966">
        <ele>327</ele>
        <time>2020-05-30T04:54:35Z</time>
      </trkpt>
      <trkpt lat="46.67002" lon="4.63929">
        <ele>325</ele>
        <time>2020-05-30T04:55:09Z</time>
      </trkpt>
      <trkpt lat="46.66999" lon="4.63895">
        <ele>322</ele>
        <time>2020-05-30T04:55:41Z</time>
      </trkpt>
      <trkpt lat="46.66996" lon="4.63882">
        <ele>321</ele>
        <time>2020-05-30T04:55:53Z</time>
      </trkpt>
      <trkpt lat="46.66992" lon="4.6387">
        <ele>320</ele>
        <time>2020-05-30T04:56:05Z</time>
      </trkpt>
      <trkpt lat="46.66989" lon="4.6386">
        <ele>320</ele>
        <time>2020-05-30T04:56:15Z</time>
      </trkpt>
      <trkpt lat="46.66989" lon="4.63733">
        <ele>315</ele>
        <time>2020-05-30T04:58:12Z</time>
      </trkpt>
      <trkpt lat="46.6699" lon="4.63654">
        <ele>315</ele>
        <time>2020-05-30T04:59:24Z</time>
      </trkpt>
      <trkpt lat="46.66996" lon="4.63644">
        <ele>315</ele>
        <time>2020-05-30T04:59:36Z</time>
      </trkpt>
      <trkpt lat="46.67003" lon="4.63639">
        <ele>315</ele>
        <time>2020-05-30T04:59:47Z</time>
      </trkpt>
      <trkpt lat="46.67012" lon="4.63638">
        <ele>314</ele>
        <time>2020-05-30T04:59:59Z</time>
      </trkpt>
      <trkpt lat="46.67033" lon="4.63641">
        <ele>313</ele>
        <time>2020-05-30T05:00:27Z</time>
      </trkpt>
      <trkpt lat="46.67072" lon="4.63653">
        <ele>312</ele>
        <time>2020-05-30T05:01:20Z</time>
      </trkpt>
      <trkpt lat="46.67091" lon="4.63655">
        <ele>311</ele>
        <time>2020-05-30T05:01:46Z</time>
      </trkpt>
      <trkpt lat="46.6712" lon="4.63653">
        <ele>310</ele>
        <time>2020-05-30T05:02:24Z</time>
      </trkpt>
      <trkpt lat="46.67137" lon="4.63655">
        <ele>310</ele>
        <time>2020-05-30T05:02:47Z</time>
      </trkpt>
      <trkpt lat="46.67146" lon="4.63651">
        <ele>309</ele>
        <time>2020-05-30T05:03:00Z</time>
      </trkpt>
      <trkpt lat="46.67165" lon="4.63609">
        <ele>308</ele>
        <time>2020-05-30T05:03:46Z</time>
      </trkpt>
      <trkpt lat="46.67174" lon="4.63587">
        <ele>308</ele>
        <time>2020-05-30T05:04:09Z</time>
      </trkpt>
      <trkpt lat="46.67199" lon="4.6354">
        <ele>306</ele>
        <time>2020-05-30T05:05:04Z</time>
      </trkpt>
      <trkpt lat="46.67217" lon="4.63504">
        <ele>304</ele>
        <time>2020-05-30T05:05:44Z</time>
      </trkpt>
      <trkpt lat="46.67234" lon="4.63486">
        <ele>303</ele>
        <time>2020-05-30T05:06:12Z</time>
      </trkpt>
      <trkpt lat="46.67264" lon="4.63469">
        <ele>302</ele>
        <time>2020-05-30T05:06:55Z</time>
      </trkpt>
      <trkpt lat="46.67274" lon="4.63468">
        <ele>302</ele>
        <time>2020-05-30T05:07:09Z</time>
      </trkpt>
      <trkpt lat="46.67315" lon="4.63426">
        <ele>300</ele>
        <time>2020-05-30T05:08:16Z</time>
      </trkpt>
      <trkpt lat="46.67349" lon="4.63397">
        <ele>299</ele>
        <time>2020-05-30T05:09:08Z</time>
      </trkpt>
      <trkpt lat="46.67367" lon="4.63392">
        <ele>298</ele>
        <time>2020-05-30T05:09:33Z</time>
      </trkpt>
      <trkpt lat="46.67431" lon="4.63394">
        <ele>299</ele>
        <time>2020-05-30T05:10:58Z</time>
      </trkpt>
      <trkpt lat="46.67459" lon="4.63387">
        <ele>299</ele>
        <time>2020-05-30T05:11:36Z</time>
      </trkpt>
      <trkpt lat="46.675" lon="4.63366">
        <ele>297</ele>
        <time>2020-05-30T05:12:34Z</time>
      </trkpt>
      <trkpt lat="46.6752" lon="4.63347">
        <ele>295</ele>
        <time>2020-05-30T05:13:06Z</time>
      </trkpt>
      <trkpt lat="46.67528" lon="4.63336">
        <ele>295</ele>
        <time>2020-05-30T05:13:20Z</time>
      </trkpt>
      <trkpt lat="46.67553" lon="4.63334">
        <ele>294</ele>
        <time>2020-05-30T05:13:54Z</time>
      </trkpt>
      <trkpt lat="46.67578" lon="4.63327">
        <ele>294</ele>
        <time>2020-05-30T05:14:28Z</time>
      </trkpt>
      <trkpt lat="46.6762" lon="4.63333">
        <ele>292</ele>
        <time>2020-05-30T05:15:24Z</time>
      </trkpt>
      <trkpt lat="46.67647" lon="4.63335">
        <ele>291</ele>
        <time>2020-05-30T05:16:00Z</time>
      </trkpt>
      <trkpt lat="46.67699" lon="4.6333">
        <ele>288</ele>
        <time>2020-05-30T05:17:10Z</time>
      </trkpt>
      <trkpt lat="46.67719" lon="4.63332">
        <ele>287</ele>
        <time>2020-05-30T05:17:37Z</time>
      </trkpt>
      <trkpt lat="46.67758" lon="4.63345">
        <ele>285</ele>
        <time>2020-05-30T05:18:30Z</time>
      </trkpt>
      <trkpt lat="46.67817" lon="4.63373">
        <ele>284</ele>
        <time>2020-05-30T05:19:53Z</time>
      </trkpt>
      <trkpt lat="46.67864" lon="4.63394">
        <ele>284</ele>
        <time>2020-05-30T05:20:58Z</time>
      </trkpt>
      <trkpt lat="46.67873" lon="4.63397">
        <ele>284</ele>
        <time>2020-05-30T05:21:11Z</time>
      </trkpt>
      <trkpt lat="46.67901" lon="4.634">
        <ele>283</ele>
        <time>2020-05-30T05:21:48Z</time>
      </trkpt>
      <trkpt lat="46.67929" lon="4.634">
        <ele>282</ele>
        <time>2020-05-30T05:22:25Z</time>
      </trkpt>
      <trkpt lat="46.67958" lon="4.63385">
        <ele>281</ele>
        <time>2020-05-30T05:23:07Z</time>
      </trkpt>
      <trkpt lat="46.67971" lon="4.63367">
        <ele>281</ele>
        <time>2020-05-30T05:23:30Z</time>
      </trkpt>
      <trkpt lat="46.67983" lon="4.6338">
        <ele>281</ele>
        <time>2020-05-30T05:23:50Z</time>
      </trkpt>
      <trkpt lat="46.68001" lon="4.63393">
        <ele>280</ele>
        <time>2020-05-30T05:24:17Z</time>
      </trkpt>
      <trkpt lat="46.68004" lon="4.634">
        <ele>281</ele>
        <time>2020-05-30T05:24:25Z</time>
      </trkpt>
      <trkpt lat="46.68015" lon="4.63402">
        <ele>281</ele>
        <time>2020-05-30T05:24:40Z</time>
      </trkpt>
      <trkpt lat="46.68046" lon="4.63425">
        <ele>282</ele>
        <time>2020-05-30T05:25:26Z</time>
      </trkpt>
      <trkpt lat="46.68106" lon="4.6347">
        <ele>286</ele>
        <time>2020-05-30T05:26:56Z</time>
      </trkpt>
      <trkpt lat="46.68129" lon="4.63498">
        <ele>287</ele>
        <time>2020-05-30T05:27:36Z</time>
      </trkpt>
      <trkpt lat="46.68143" lon="4.63511">
        <ele>287</ele>
        <time>2020-05-30T05:27:58Z</time>
      </trkpt>
      <trkpt lat="46.68163" lon="4.63528">
        <ele>288</ele>
        <time>2020-05-30T05:28:29Z</time>
      </trkpt>
      <trkpt lat="46.68189" lon="4.63543">
        <ele>289</ele>
        <time>2020-05-30T05:29:06Z</time>
      </trkpt>
      <trkpt lat="46.68198" lon="4.63551">
        <ele>289</ele>
        <time>2020-05-30T05:29:20Z</time>
      </trkpt>
      <trkpt lat="46.68204" lon="4.63568">
        <ele>290</ele>
        <time>2020-05-30T05:29:38Z</time>
      </trkpt>
      <trkpt lat="46.68214" lon="4.6361">
        <ele>291</ele>
        <time>2020-05-30T05:30:19Z</time>
      </trkpt>
      <trkpt lat="46.68224" lon="4.63646">
        <ele>292</ele>
        <time>2020-05-30T05:30:54Z</time>
      </trkpt>
      <trkpt lat="46.68238" lon="4.63694">
        <ele>291</ele>
        <time>2020-05-30T05:31:42Z</time>
      </trkpt>
      <trkpt lat="46.68257" lon="4.63727">
        <ele>290</ele>
        <time>2020-05-30T05:32:21Z</time>
      </trkpt>
      <trkpt lat="46.68292" lon="4.63771">
        <ele>291</ele>
        <time>2020-05-30T05:33:23Z</time>
      </trkpt>
      <trkpt lat="46.68327" lon="4.63806">
        <ele>292</ele>
        <time>2020-05-30T05:34:20Z</time>
      </trkpt>
      <trkpt lat="46.68354" lon="4.63827">
        <ele>291</ele>
        <time>2020-05-30T05:35:01Z</time>
      </trkpt>
      <trkpt lat="46.68379" lon="4.63847">
        <ele>292</ele>
        <time>2020-05-30T05:35:39Z</time>
      </trkpt>
      <trkpt lat="46.68408" lon="4.63867">
        <ele>292</ele>
        <time>2020-05-30T05:36:21Z</time>
      </trkpt>
      <trkpt lat="46.68444" lon="4.63881">
        <ele>292</ele>
        <time>2020-05-30T05:37:11Z</time>
      </trkpt>
      <trkpt lat="46.68464" lon="4.63892">
        <ele>293</ele>
        <time>2020-05-30T05:37:40Z</time>
      </trkpt>
      <trkpt lat="46.68519" lon="4.63935">
        <ele>294</ele>
        <time>2020-05-30T05:39:03Z</time>
      </trkpt>
      <trkpt lat="46.68542" lon="4.63956">
        <ele>295</ele>
        <time>2020-05-30T05:39:39Z</time>
      </trkpt>
      <trkpt lat="46.68574" lon="4.63991">
        <ele>297</ele>
        <time>2020-05-30T05:40:33Z</time>
      </trkpt>
      <trkpt lat="46.68589" lon="4.64008">
        <ele>298</ele>
        <time>2020-05-30T05:40:58Z</time>
      </trkpt>
      <trkpt lat="46.68618" lon="4.64031">
        <ele>298</ele>
        <time>2020-05-30T05:41:42Z</time>
      </trkpt>
      <trkpt lat="46.68637" lon="4.64051">
        <ele>299</ele>
        <time>2020-05-30T05:42:13Z</time>
      </trkpt>
      <trkpt lat="46.68669" lon="4.64076">
        <ele>299</ele>
        <time>2020-05-30T05:43:02Z</time>
      </trkpt>
      <trkpt lat="46.68696" lon="4.64093">
        <ele>299</ele>
        <time>2020-05-30T05:43:41Z</time>
      </trkpt>
      <trkpt lat="46.68713" lon="4.64111">
        <ele>299</ele>
        <time>2020-05-30T05:44:09Z</time>
      </trkpt>
      <trkpt lat="46.68737" lon="4.64147">
        <ele>299</ele>
        <time>2020-05-30T05:44:55Z</time>
      </trkpt>
      <trkpt lat="46.68765" lon="4.64199">
        <ele>299</ele>
        <time>2020-05-30T05:45:55Z</time>
      </trkpt>
      <trkpt lat="46.6877" lon="4.64208">
        <ele>299</ele>
        <time>2020-05-30T05:46:06Z</time>
      </trkpt>
      <trkpt lat="46.68793" lon="4.64231">
        <ele>299</ele>
        <time>2020-05-30T05:46:43Z</time>
      </trkpt>
      <trkpt lat="46.68813" lon="4.6426">
        <ele>299</ele>
        <time>2020-05-30T05:47:21Z</time>
      </trkpt>
      <trkpt lat="46.68823" lon="4.64269">
        <ele>299</ele>
        <time>2020-05-30T05:47:37Z</time>
      </trkpt>
      <trkpt lat="46.68843" lon="4.64284">
        <ele>300</ele>
        <time>2020-05-30T05:48:07Z</time>
      </trkpt>
      <trkpt lat="46.68876" lon="4.64321">
        <ele>301</ele>
        <time>2020-05-30T05:49:02Z</time>
      </trkpt>
      <trkpt lat="46.68879" lon="4.64324">
        <ele>301</ele>
        <time>2020-05-30T05:49:07Z</time>
      </trkpt>
      <trkpt lat="46.68915" lon="4.64335">
        <ele>300</ele>
        <time>2020-05-30T05:49:56Z</time>
      </trkpt>
      <trkpt lat="46.68921" lon="4.64351">
        <ele>301</ele>
        <time>2020-05-30T05:50:13Z</time>
      </trkpt>
      <trkpt lat="46.68927" lon="4.64393">
        <ele>304</ele>
        <time>2020-05-30T05:50:52Z</time>
      </trkpt>
      <trkpt lat="46.68929" lon="4.64429">
        <ele>306</ele>
        <time>2020-05-30T05:51:25Z</time>
      </trkpt>
      <trkpt lat="46.68921" lon="4.64508">
        <ele>309</ele>
        <time>2020-05-30T05:52:38Z</time>
      </trkpt>
      <trkpt lat="46.6892" lon="4.6457">
        <ele>312</ele>
        <time>2020-05-30T05:53:35Z</time>
      </trkpt>
      <trkpt lat="46.68927" lon="4.64633">
        <ele>315</ele>
        <time>2020-05-30T05:54:33Z</time>
      </trkpt>
      <trkpt lat="46.68932" lon="4.64704">
        <ele>319</ele>
        <time>2020-05-30T05:55:39Z</time>
      </trkpt>
      <trkpt lat="46.68937" lon="4.64776">
        <ele>324</ele>
        <time>2020-05-30T05:56:45Z</time>
      </trkpt>
      <trkpt lat="46.68939" lon="4.64843">
        <ele>328</ele>
        <time>2020-05-30T05:57:46Z</time>
      </trkpt>
      <trkpt lat="46.68932" lon="4.64928">
        <ele>331</ele>
        <time>2020-05-30T05:59:05Z</time>
      </trkpt>
      <trkpt lat="46.68935" lon="4.64979">
        <ele>333</ele>
        <time>2020-05-30T05:59:52Z</time>
      </trkpt>
      <trkpt lat="46.68942" lon="4.6504">
        <ele>335</ele>
        <time>2020-05-30T06:00:48Z</time>
      </trkpt>
      <trkpt lat="46.68948" lon="4.65089">
        <ele>337</ele>
        <time>2020-05-30T06:01:34Z</time>
      </trkpt>
      <trkpt lat="46.68948" lon="4.65109">
        <ele>338</ele>
        <time>2020-05-30T06:01:52Z</time>
      </trkpt>
      <trkpt lat="46.68945" lon="4.65141">
        <ele>340</ele>
        <time>2020-05-30T06:02:22Z</time>
      </trkpt>
      <trkpt lat="46.68937" lon="4.65182">
        <ele>343</ele>
        <time>2020-05-30T06:03:01Z</time>
      </trkpt>
      <trkpt lat="46.68923" lon="4.65227">
        <ele>347</ele>
        <time>2020-05-30T06:03:46Z</time>
      </trkpt>
      <trkpt lat="46.68886" lon="4.65329">
        <ele>355</ele>
        <time>2020-05-30T06:05:32Z</time>
      </trkpt>
      <trkpt lat="46.68869" lon="4.65384">
        <ele>360</ele>
        <time>2020-05-30T06:06:27Z</time>
      </trkpt>
      <trkpt lat="46.68867" lon="4.65426">
        <ele>362</ele>
        <time>2020-05-30T06:07:05Z</time>
      </trkpt>
      <trkpt lat="46.68866" lon="4.65478">
        <ele>365</ele>
        <time>2020-05-30T06:07:53Z</time>
      </trkpt>
      <trkpt lat="46.68864" lon="4.65494">
        <ele>366</ele>
        <time>2020-05-30T06:08:08Z</time>
      </trkpt>
      <trkpt lat="46.68834" lon="4.65561">
        <ele>371</ele>
        <time>2020-05-30T06:09:21Z</time>
      </trkpt>
      <trkpt lat="46.68801" lon="4.65658">
        <ele>373</ele>
        <time>2020-05-30T06:11:00Z</time>
      </trkpt>
      <trkpt lat="46.68793" lon="4.65691">
        <ele>374</ele>
        <time>2020-05-30T06:11:32Z</time>
      </trkpt>
      <trkpt lat="46.6879" lon="4.65785">
        <ele>375</ele>
        <time>2020-05-30T06:12:58Z</time>
      </trkpt>
      <trkpt lat="46.68791" lon="4.65872">
        <ele>378</ele>
        <time>2020-05-30T06:14:18Z</time>
      </trkpt>
      <trkpt lat="46.68804" lon="4.65995">
        <ele>380</ele>
        <time>2020-05-30T06:16:12Z</time>
      </trkpt>
      <trkpt lat="46.68802" lon="4.66066">
        <ele>384</ele>
        <time>2020-05-30T06:17:17Z</time>
      </trkpt>
      <trkpt lat="46.68806" lon="4.66133">
        <ele>386</ele>
        <time>2020-05-30T06:18:19Z</time>
      </trkpt>
      <trkpt lat="46.68814" lon="4.66234">
        <ele>386</ele>
        <time>2020-05-30T06:19:52Z</time>
      </trkpt>
      <trkpt lat="46.68822" lon="4.6629">
        <ele>384</ele>
        <time>2020-05-30T06:20:44Z</time>
      </trkpt>
      <trkpt lat="46.6883" lon="4.66289">
        <ele>384</ele>
        <time>2020-05-30T06:20:55Z</time>
      </trkpt>
      <trkpt lat="46.68873" lon="4.66317">
        <ele>386</ele>
        <time>2020-05-30T06:21:58Z</time>
      </trkpt>
      <trkpt lat="46.6894" lon="4.66362">
        <ele>389</ele>
        <time>2020-05-30T06:23:36Z</time>
      </trkpt>
      <trkpt lat="46.68996" lon="4.664">
        <ele>392</ele>
        <time>2020-05-30T06:24:58Z</time>
      </trkpt>
      <trkpt lat="46.69031" lon="4.66438">
        <ele>393</ele>
        <time>2020-05-30T06:25:57Z</time>
      </trkpt>
      <trkpt lat="46.69104" lon="4.6652">
        <ele>398</ele>
        <time>2020-05-30T06:28:00Z</time>
      </trkpt>
      <trkpt lat="46.69127" lon="4.6654">
        <ele>399</ele>
        <time>2020-05-30T06:28:35Z</time>
      </trkpt>
      <trkpt lat="46.69145" lon="4.66547">
        <ele>400</ele>
        <time>2020-05-30T06:29:00Z</time>
      </trkpt>
      <trkpt lat="46.69189" lon="4.66557">
        <ele>401</ele>
        <time>2020-05-30T06:30:00Z</time>
      </trkpt>
      <trkpt lat="46.69229" lon="4.66573">
        <ele>400</ele>
        <time>2020-05-30T06:30:55Z</time>
      </trkpt>
      <trkpt lat="46.69249" lon="4.66576">
        <ele>400</ele>
        <time>2020-05-30T06:31:22Z</time>
      </trkpt>
      <trkpt lat="46.69293" lon="4.66575">
        <ele>401</ele>
        <time>2020-05-30T06:32:21Z</time>
      </trkpt>
      <trkpt lat="46.69328" lon="4.66583">
        <ele>401</ele>
        <time>2020-05-30T06:33:08Z</time>
      </trkpt>
      <trkpt lat="46.6935" lon="4.66592">
        <ele>401</ele>
        <time>2020-05-30T06:33:38Z</time>
      </trkpt>
      <trkpt lat="46.69393" lon="4.66623">
        <ele>400</ele>
        <time>2020-05-30T06:34:42Z</time>
      </trkpt>
      <trkpt lat="46.69422" lon="4.66651">
        <ele>399</ele>
        <time>2020-05-30T06:35:29Z</time>
      </trkpt>
      <trkpt lat="46.69473" lon="4.66705">
        <ele>400</ele>
        <time>2020-05-30T06:36:53Z</time>
      </trkpt>
      <trkpt lat="46.69506" lon="4.66729">
        <ele>402</ele>
        <time>2020-05-30T06:37:42Z</time>
      </trkpt>
      <trkpt lat="46.69548" lon="4.66756">
        <ele>403</ele>
        <time>2020-05-30T06:38:43Z</time>
      </trkpt>
      <trkpt lat="46.69644" lon="4.66809">
        <ele>405</ele>
        <time>2020-05-30T06:41:00Z</time>
      </trkpt>
      <trkpt lat="46.69706" lon="4.66841">
        <ele>405</ele>
        <time>2020-05-30T06:42:28Z</time>
      </trkpt>
      <trkpt lat="46.69748" lon="4.66862">
        <ele>403</ele>
        <time>2020-05-30T06:43:27Z</time>
      </trkpt>
      <trkpt lat="46.69766" lon="4.66875">
        <ele>402</ele>
        <time>2020-05-30T06:43:54Z</time>
      </trkpt>
      <trkpt lat="46.69787" lon="4.669">
        <ele>401</ele>
        <time>2020-05-30T06:44:30Z</time>
      </trkpt>
      <trkpt lat="46.69806" lon="4.66933">
        <ele>400</ele>
        <time>2020-05-30T06:45:10Z</time>
      </trkpt>
      <trkpt lat="46.6982" lon="4.66963">
        <ele>399</ele>
        <time>2020-05-30T06:45:43Z</time>
      </trkpt>
      <trkpt lat="46.69838" lon="4.67009">
        <ele>397</ele>
        <time>2020-05-30T06:46:31Z</time>
      </trkpt>
      <trkpt lat="46.69858" lon="4.67033">
        <ele>395</ele>
        <time>2020-05-30T06:47:06Z</time>
      </trkpt>
      <trkpt lat="46.69882" lon="4.67057">
        <ele>393</ele>
        <time>2020-05-30T06:47:45Z</time>
      </trkpt>
      <trkpt lat="46.69909" lon="4.67075">
        <ele>392</ele>
        <time>2020-05-30T06:48:24Z</time>
      </trkpt>
      <trkpt lat="46.69925" lon="4.67082">
        <ele>392</ele>
        <time>2020-05-30T06:48:47Z</time>
      </trkpt>
      <trkpt lat="46.69954" lon="4.67071">
        <ele>393</ele>
        <time>2020-05-30T06:49:27Z</time>
      </trkpt>
      <trkpt lat="46.70006" lon="4.67052">
        <ele>395</ele>
        <time>2020-05-30T06:50:38Z</time>
      </trkpt>
      <trkpt lat="46.70034" lon="4.67032">
        <ele>395</ele>
        <time>2020-05-30T06:51:20Z</time>
      </trkpt>
      <trkpt lat="46.70078" lon="4.67012">
        <ele>394</ele>
        <time>2020-05-30T06:52:21Z</time>
      </trkpt>
      <trkpt lat="46.70143" lon="4.67">
        <ele>392</ele>
        <time>2020-05-30T06:53:49Z</time>
      </trkpt>
      <trkpt lat="46.70197" lon="4.66988">
        <ele>389</ele>
        <time>2020-05-30T06:55:02Z</time>
      </trkpt>
      <trkpt lat="46.70212" lon="4.66973">
        <ele>388</ele>
        <time>2020-05-30T06:55:26Z</time>
      </trkpt>
      <trkpt lat="46.70226" lon="4.66955">
        <ele>387</ele>
        <time>2020-05-30T06:55:51Z</time>
      </trkpt>
      <trkpt lat="46.70252" lon="4.66924">
        <ele>387</ele>
        <time>2020-05-30T06:56:36Z</time>
      </trkpt>
      <trkpt lat="46.7029" lon="4.66886">
        <ele>384</ele>
        <time>2020-05-30T06:57:37Z</time>
      </trkpt>
      <trkpt lat="46.70341" lon="4.66829">
        <ele>381</ele>
        <time>2020-05-30T06:59:03Z</time>
      </trkpt>
      <trkpt lat="46.70362" lon="4.6681">
        <ele>380</ele>
        <time>2020-05-30T06:59:36Z</time>
      </trkpt>
      <trkpt lat="46.70377" lon="4.66809">
        <ele>378</ele>
        <time>2020-05-30T06:59:56Z</time>
      </trkpt>
      <trkpt lat="46.70399" lon="4.66803">
        <ele>377</ele>
        <time>2020-05-30T07:00:26Z</time>
      </trkpt>
      <trkpt lat="46.70417" lon="4.66789">
        <ele>376</ele>
        <time>2020-05-30T07:00:53Z</time>
      </trkpt>
      <trkpt lat="46.70429" lon="4.6677">
        <ele>375</ele>
        <time>2020-05-30T07:01:17Z</time>
      </trkpt>
      <trkpt lat="46.7044" lon="4.66747">
        <ele>374</ele>
        <time>2020-05-30T07:01:42Z</time>
      </trkpt>
      <trkpt lat="46.70458" lon="4.66681">
        <ele>371</ele>
        <time>2020-05-30T07:02:47Z</time>
      </trkpt>
      <trkpt lat="46.7047" lon="4.6665">
        <ele>370</ele>
        <time>2020-05-30T07:03:20Z</time>
      </trkpt>
      <trkpt lat="46.70478" lon="4.66649">
        <ele>369</ele>
        <time>2020-05-30T07:03:31Z</time>
      </trkpt>
      <trkpt lat="46.7054" lon="4.66818">
        <ele>360</ele>
        <time>2020-05-30T07:06:26Z</time>
      </trkpt>
      <trkpt lat="46.70549" lon="4.66845">
        <ele>356</ele>
        <time>2020-05-30T07:06:54Z</time>
      </trkpt>
      <trkpt lat="46.70556" lon="4.6685">
        <ele>355</ele>
        <time>2020-05-30T07:07:04Z</time>
      </trkpt>
      <trkpt lat="46.70582" lon="4.66853">
        <ele>353</ele>
        <time>2020-05-30T07:07:39Z</time>
      </trkpt>
      <trkpt lat="46.70631" lon="4.66929">
        <ele>349</ele>
        <time>2020-05-30T07:09:14Z</time>
      </trkpt>
      <trkpt lat="46.70671" lon="4.66984">
        <ele>345</ele>
        <time>2020-05-30T07:10:28Z</time>
      </trkpt>
      <trkpt lat="46.70678" lon="4.66994">
        <ele>344</ele>
        <time>2020-05-30T07:10:41Z</time>
      </trkpt>
      <trkpt lat="46.70753" lon="4.67084">
        <ele>339</ele>
        <time>2020-05-30T07:12:50Z</time>
      </trkpt>
      <trkpt lat="46.70581" lon="4.6686">
        <ele>352</ele>
        <time>2020-05-30T07:17:58Z</time>
      </trkpt>
      <trkpt lat="46.70549" lon="4.66842">
        <ele>357</ele>
        <time>2020-05-30T07:18:44Z</time>
      </trkpt>
      <trkpt lat="46.70547" lon="4.66831">
        <ele>358</ele>
        <time>2020-05-30T07:18:54Z</time>
      </trkpt>
      <trkpt lat="46.70538" lon="4.66798">
        <ele>361</ele>
        <time>2020-05-30T07:19:27Z</time>
      </trkpt>
      <trkpt lat="46.70476" lon="4.66628">
        <ele>371</ele>
        <time>2020-05-30T07:22:23Z</time>
      </trkpt>
      <trkpt lat="46.70478" lon="4.66621">
        <ele>371</ele>
        <time>2020-05-30T07:22:30Z</time>
      </trkpt>
      <trkpt lat="46.70472" lon="4.66566">
        <ele>374</ele>
        <time>2020-05-30T07:23:21Z</time>
      </trkpt>
      <trkpt lat="46.70463" lon="4.66505">
        <ele>375</ele>
        <time>2020-05-30T07:24:18Z</time>
      </trkpt>
      <trkpt lat="46.70458" lon="4.66484">
        <ele>375</ele>
        <time>2020-05-30T07:24:38Z</time>
      </trkpt>
      <trkpt lat="46.70454" lon="4.66472">
        <ele>375</ele>
        <time>2020-05-30T07:24:50Z</time>
      </trkpt>
      <trkpt lat="46.70453" lon="4.66459">
        <ele>375</ele>
        <time>2020-05-30T07:25:02Z</time>
      </trkpt>
      <trkpt lat="46.70453" lon="4.66441">
        <ele>374</ele>
        <time>2020-05-30T07:25:19Z</time>
      </trkpt>
      <trkpt lat="46.70456" lon="4.66421">
        <ele>374</ele>
        <time>2020-05-30T07:25:38Z</time>
      </trkpt>
      <trkpt lat="46.70468" lon="4.66378">
        <ele>373</ele>
        <time>2020-05-30T07:26:20Z</time>
      </trkpt>
      <trkpt lat="46.70475" lon="4.66363">
        <ele>373</ele>
        <time>2020-05-30T07:26:37Z</time>
      </trkpt>
      <trkpt lat="46.70484" lon="4.66349">
        <ele>374</ele>
        <time>2020-05-30T07:26:54Z</time>
      </trkpt>
      <trkpt lat="46.70478" lon="4.66316">
        <ele>374</ele>
        <time>2020-05-30T07:27:25Z</time>
      </trkpt>
      <trkpt lat="46.70481" lon="4.66298">
        <ele>374</ele>
        <time>2020-05-30T07:27:42Z</time>
      </trkpt>
      <trkpt lat="46.70481" lon="4.66273">
        <ele>374</ele>
        <time>2020-05-30T07:28:05Z</time>
      </trkpt>
      <trkpt lat="46.70488" lon="4.66177">
        <ele>376</ele>
        <time>2020-05-30T07:29:34Z</time>
      </trkpt>
      <trkpt lat="46.70502" lon="4.66106">
        <ele>376</ele>
        <time>2020-05-30T07:30:41Z</time>
      </trkpt>
      <trkpt lat="46.70509" lon="4.66082">
        <ele>376</ele>
        <time>2020-05-30T07:31:05Z</time>
      </trkpt>
      <trkpt lat="46.70515" lon="4.66019">
        <ele>376</ele>
        <time>2020-05-30T07:32:03Z</time>
      </trkpt>
      <trkpt lat="46.70511" lon="4.65999">
        <ele>376</ele>
        <time>2020-05-30T07:32:22Z</time>
      </trkpt>
      <trkpt lat="46.70508" lon="4.65949">
        <ele>376</ele>
        <time>2020-05-30T07:33:08Z</time>
      </trkpt>
      <trkpt lat="46.70505" lon="4.65891">
        <ele>377</ele>
        <time>2020-05-30T07:34:02Z</time>
      </trkpt>
      <trkpt lat="46.70494" lon="4.65842">
        <ele>376</ele>
        <time>2020-05-30T07:34:49Z</time>
      </trkpt>
      <trkpt lat="46.70488" lon="4.6577">
        <ele>377</ele>
        <time>2020-05-30T07:35:55Z</time>
      </trkpt>
      <trkpt lat="46.70484" lon="4.65744">
        <ele>377</ele>
        <time>2020-05-30T07:36:19Z</time>
      </trkpt>
      <trkpt lat="46.70476" lon="4.65708">
        <ele>377</ele>
        <time>2020-05-30T07:36:54Z</time>
      </trkpt>
      <trkpt lat="46.70469" lon="4.65656">
        <ele>378</ele>
        <time>2020-05-30T07:37:43Z</time>
      </trkpt>
      <trkpt lat="46.70467" lon="4.65635">
        <ele>378</ele>
        <time>2020-05-30T07:38:02Z</time>
      </trkpt>
      <trkpt lat="46.70466" lon="4.65573">
        <ele>379</ele>
        <time>2020-05-30T07:38:59Z</time>
      </trkpt>
      <trkpt lat="46.70467" lon="4.65531">
        <ele>380</ele>
        <time>2020-05-30T07:39:37Z</time>
      </trkpt>
      <trkpt lat="46.7046" lon="4.6549">
        <ele>381</ele>
        <time>2020-05-30T07:40:16Z</time>
      </trkpt>
      <trkpt lat="46.70454" lon="4.65451">
        <ele>384</ele>
        <time>2020-05-30T07:40:52Z</time>
      </trkpt>
      <trkpt lat="46.7045" lon="4.65427">
        <ele>385</ele>
        <time>2020-05-30T07:41:15Z</time>
      </trkpt>
      <trkpt lat="46.70445" lon="4.65407">
        <ele>386</ele>
        <time>2020-05-30T07:41:35Z</time>
      </trkpt>
      <trkpt lat="46.70439" lon="4.65372">
        <ele>388</ele>
        <time>2020-05-30T07:42:08Z</time>
      </trkpt>
      <trkpt lat="46.70439" lon="4.65352">
        <ele>389</ele>
        <time>2020-05-30T07:42:26Z</time>
      </trkpt>
      <trkpt lat="46.70441" lon="4.65319">
        <ele>391</ele>
        <time>2020-05-30T07:42:56Z</time>
      </trkpt>
      <trkpt lat="46.70447" lon="4.65283">
        <ele>393</ele>
        <time>2020-05-30T07:43:30Z</time>
      </trkpt>
      <trkpt lat="46.70451" lon="4.65257">
        <ele>394</ele>
        <time>2020-05-30T07:43:54Z</time>
      </trkpt>
      <trkpt lat="46.70463" lon="4.65229">
        <ele>395</ele>
        <time>2020-05-30T07:44:25Z</time>
      </trkpt>
      <trkpt lat="46.70485" lon="4.65162">
        <ele>393</ele>
        <time>2020-05-30T07:45:33Z</time>
      </trkpt>
      <trkpt lat="46.70486" lon="4.65139">
        <ele>391</ele>
        <time>2020-05-30T07:45:54Z</time>
      </trkpt>
      <trkpt lat="46.70483" lon="4.65127">
        <ele>390</ele>
        <time>2020-05-30T07:46:05Z</time>
      </trkpt>
      <trkpt lat="46.70472" lon="4.65124">
        <ele>390</ele>
        <time>2020-05-30T07:46:20Z</time>
      </trkpt>
      <trkpt lat="46.70411" lon="4.65092">
        <ele>386</ele>
        <time>2020-05-30T07:47:47Z</time>
      </trkpt>
      <trkpt lat="46.70389" lon="4.65082">
        <ele>385</ele>
        <time>2020-05-30T07:48:18Z</time>
      </trkpt>
      <trkpt lat="46.70358" lon="4.65063">
        <ele>383</ele>
        <time>2020-05-30T07:49:03Z</time>
      </trkpt>
      <trkpt lat="46.70305" lon="4.65036">
        <ele>381</ele>
        <time>2020-05-30T07:50:17Z</time>
      </trkpt>
      <trkpt lat="46.70273" lon="4.65025">
        <ele>379</ele>
        <time>2020-05-30T07:51:01Z</time>
      </trkpt>
      <trkpt lat="46.70225" lon="4.64999">
        <ele>377</ele>
        <time>2020-05-30T07:52:10Z</time>
      </trkpt>
      <trkpt lat="46.69964" lon="4.64865">
        <ele>365</ele>
        <time>2020-05-30T07:58:19Z</time>
      </trkpt>
      <trkpt lat="46.69925" lon="4.64844">
        <ele>362</ele>
        <time>2020-05-30T07:59:14Z</time>
      </trkpt>
      <trkpt lat="46.69908" lon="4.64835">
        <ele>361</ele>
        <time>2020-05-30T07:59:39Z</time>
      </trkpt>
      <trkpt lat="46.69902" lon="4.64824">
        <ele>361</ele>
        <time>2020-05-30T07:59:51Z</time>
      </trkpt>
      <trkpt lat="46.69891" lon="4.64784">
        <ele>361</ele>
        <time>2020-05-30T08:00:31Z</time>
      </trkpt>
      <trkpt lat="46.69885" lon="4.64753">
        <ele>361</ele>
        <time>2020-05-30T08:01:00Z</time>
      </trkpt>
      <trkpt lat="46.69877" lon="4.64744">
        <ele>361</ele>
        <time>2020-05-30T08:01:14Z</time>
      </trkpt>
      <trkpt lat="46.69807" lon="4.64717">
        <ele>361</ele>
        <time>2020-05-30T08:02:50Z</time>
      </trkpt>
      <trkpt lat="46.69736" lon="4.64679">
        <ele>362</ele>
        <time>2020-05-30T08:04:31Z</time>
      </trkpt>
      <trkpt lat="46.69716" lon="4.64672">
        <ele>362</ele>
        <time>2020-05-30T08:04:59Z</time>
      </trkpt>
      <trkpt lat="46.69656" lon="4.64652">
        <ele>363</ele>
        <time>2020-05-30T08:06:21Z</time>
      </trkpt>
      <trkpt lat="46.69634" lon="4.64641">
        <ele>363</ele>
        <time>2020-05-30T08:06:52Z</time>
      </trkpt>
      <trkpt lat="46.69622" lon="4.64631">
        <ele>363</ele>
        <time>2020-05-30T08:07:10Z</time>
      </trkpt>
      <trkpt lat="46.69612" lon="4.64621">
        <ele>364</ele>
        <time>2020-05-30T08:07:27Z</time>
      </trkpt>
      <trkpt lat="46.696" lon="4.64574">
        <ele>368</ele>
        <time>2020-05-30T08:08:12Z</time>
      </trkpt>
      <trkpt lat="46.69586" lon="4.6451">
        <ele>371</ele>
        <time>2020-05-30T08:09:14Z</time>
      </trkpt>
      <trkpt lat="46.69584" lon="4.64492">
        <ele>372</ele>
        <time>2020-05-30T08:09:31Z</time>
      </trkpt>
      <trkpt lat="46.69584" lon="4.644">
        <ele>376</ele>
        <time>2020-05-30T08:10:55Z</time>
      </trkpt>
      <trkpt lat="46.69584" lon="4.6438">
        <ele>377</ele>
        <time>2020-05-30T08:11:13Z</time>
      </trkpt>
      <trkpt lat="46.69498" lon="4.642">
        <ele>378</ele>
        <time>2020-05-30T08:14:34Z</time>
      </trkpt>
      <trkpt lat="46.69478" lon="4.64155">
        <ele>376</ele>
        <time>2020-05-30T08:15:23Z</time>
      </trkpt>
      <trkpt lat="46.69435" lon="4.64105">
        <ele>369</ele>
        <time>2020-05-30T08:16:36Z</time>
      </trkpt>
      <trkpt lat="46.69422" lon="4.64097">
        <ele>366</ele>
        <time>2020-05-30T08:16:55Z</time>
      </trkpt>
      <trkpt lat="46.69405" lon="4.64073">
        <ele>363</ele>
        <time>2020-05-30T08:17:27Z</time>
      </trkpt>
      <trkpt lat="46.69394" lon="4.64051">
        <ele>361</ele>
        <time>2020-05-30T08:17:52Z</time>
      </trkpt>
      <trkpt lat="46.69378" lon="4.63998">
        <ele>358</ele>
        <time>2020-05-30T08:18:45Z</time>
      </trkpt>
      <trkpt lat="46.69368" lon="4.63957">
        <ele>358</ele>
        <time>2020-05-30T08:19:25Z</time>
      </trkpt>
      <trkpt lat="46.69358" lon="4.63941">
        <ele>357</ele>
        <time>2020-05-30T08:19:44Z</time>
      </trkpt>
      <trkpt lat="46.69336" lon="4.63922">
        <ele>352</ele>
        <time>2020-05-30T08:20:19Z</time>
      </trkpt>
      <trkpt lat="46.69303" lon="4.63901">
        <ele>350</ele>
        <time>2020-05-30T08:21:07Z</time>
      </trkpt>
      <trkpt lat="46.69237" lon="4.63842">
        <ele>346</ele>
        <time>2020-05-30T08:22:50Z</time>
      </trkpt>
      <trkpt lat="46.6921" lon="4.63809">
        <ele>346</ele>
        <time>2020-05-30T08:23:37Z</time>
      </trkpt>
      <trkpt lat="46.69181" lon="4.63767">
        <ele>346</ele>
        <time>2020-05-30T08:24:31Z</time>
      </trkpt>
      <trkpt lat="46.69151" lon="4.63734">
        <ele>343</ele>
        <time>2020-05-30T08:25:22Z</time>
      </trkpt>
      <trkpt lat="46.6913" lon="4.63712">
        <ele>341</ele>
        <time>2020-05-30T08:25:56Z</time>
      </trkpt>
      <trkpt lat="46.69063" lon="4.63617">
        <ele>334</ele>
        <time>2020-05-30T08:28:01Z</time>
      </trkpt>
      <trkpt lat="46.68992" lon="4.63501">
        <ele>331</ele>
        <time>2020-05-30T08:30:23Z</time>
      </trkpt>
      <trkpt lat="46.6893" lon="4.63401">
        <ele>327</ele>
        <time>2020-05-30T08:32:27Z</time>
      </trkpt>
      <trkpt lat="46.68871" lon="4.63321">
        <ele>323</ele>
        <time>2020-05-30T08:34:14Z</time>
      </trkpt>
      <trkpt lat="46.68848" lon="4.63285">
        <ele>321</ele>
        <time>2020-05-30T08:34:59Z</time>
      </trkpt>
      <trkpt lat="46.68843" lon="4.63281">
        <ele>320</ele>
        <time>2020-05-30T08:35:07Z</time>
      </trkpt>
      <trkpt lat="46.68834" lon="4.63278">
        <ele>319</ele>
        <time>2020-05-30T08:35:19Z</time>
      </trkpt>
      <trkpt lat="46.68823" lon="4.63265">
        <ele>318</ele>
        <time>2020-05-30T08:35:38Z</time>
      </trkpt>
      <trkpt lat="46.68799" lon="4.6322">
        <ele>315</ele>
        <time>2020-05-30T08:36:30Z</time>
      </trkpt>
      <trkpt lat="46.68788" lon="4.63195">
        <ele>312</ele>
        <time>2020-05-30T08:36:57Z</time>
      </trkpt>
      <trkpt lat="46.6878" lon="4.63185">
        <ele>311</ele>
        <time>2020-05-30T08:37:11Z</time>
      </trkpt>
      <trkpt lat="46.68776" lon="4.63178">
        <ele>310</ele>
        <time>2020-05-30T08:37:20Z</time>
      </trkpt>
      <trkpt lat="46.68775" lon="4.63175">
        <ele>310</ele>
        <time>2020-05-30T08:37:23Z</time>
      </trkpt>
      <trkpt lat="46.68753" lon="4.63162">
        <ele>306</ele>
        <time>2020-05-30T08:37:54Z</time>
      </trkpt>
      <trkpt lat="46.68734" lon="4.63154">
        <ele>305</ele>
        <time>2020-05-30T08:38:21Z</time>
      </trkpt>
      <trkpt lat="46.68724" lon="4.63165">
        <ele>304</ele>
        <time>2020-05-30T08:38:38Z</time>
      </trkpt>
      <trkpt lat="46.68718" lon="4.63169">
        <ele>304</ele>
        <time>2020-05-30T08:38:46Z</time>
      </trkpt>
      <trkpt lat="46.68712" lon="4.63165">
        <ele>304</ele>
        <time>2020-05-30T08:38:55Z</time>
      </trkpt>
      <trkpt lat="46.68685" lon="4.63127">
        <ele>305</ele>
        <time>2020-05-30T08:39:45Z</time>
      </trkpt>
      <trkpt lat="46.68671" lon="4.63114">
        <ele>307</ele>
        <time>2020-05-30T08:40:07Z</time>
      </trkpt>
      <trkpt lat="46.68656" lon="4.63108">
        <ele>309</ele>
        <time>2020-05-30T08:40:28Z</time>
      </trkpt>
      <trkpt lat="46.68626" lon="4.63109">
        <ele>312</ele>
        <time>2020-05-30T08:41:08Z</time>
      </trkpt>
      <trkpt lat="46.68604" lon="4.6311">
        <ele>314</ele>
        <time>2020-05-30T08:41:38Z</time>
      </trkpt>
      <trkpt lat="46.68587" lon="4.63117">
        <ele>315</ele>
        <time>2020-05-30T08:42:01Z</time>
      </trkpt>
      <trkpt lat="46.68567" lon="4.63128">
        <ele>313</ele>
        <time>2020-05-30T08:42:30Z</time>
      </trkpt>
      <trkpt lat="46.68564" lon="4.63128">
        <ele>313</ele>
        <time>2020-05-30T08:42:34Z</time>
      </trkpt>
      <trkpt lat="46.68556" lon="4.63109">
        <ele>317</ele>
        <time>2020-05-30T08:42:54Z</time>
      </trkpt>
      <trkpt lat="46.68552" lon="4.63097">
        <ele>318</ele>
        <time>2020-05-30T08:43:06Z</time>
      </trkpt>
      <trkpt lat="46.68555" lon="4.63059">
        <ele>322</ele>
        <time>2020-05-30T08:43:41Z</time>
      </trkpt>
      <trkpt lat="46.68555" lon="4.63037">
        <ele>323</ele>
        <time>2020-05-30T08:44:01Z</time>
      </trkpt>
      <trkpt lat="46.68563" lon="4.62997">
        <ele>326</ele>
        <time>2020-05-30T08:44:40Z</time>
      </trkpt>
      <trkpt lat="46.68582" lon="4.62999">
        <ele>327</ele>
        <time>2020-05-30T08:45:05Z</time>
      </trkpt>
      <trkpt lat="46.68595" lon="4.62997">
        <ele>326</ele>
        <time>2020-05-30T08:45:22Z</time>
      </trkpt>
      <trkpt lat="46.68613" lon="4.62972">
        <ele>325</ele>
        <time>2020-05-30T08:45:56Z</time>
      </trkpt>
      <trkpt lat="46.68607" lon="4.62951">
        <ele>326</ele>
        <time>2020-05-30T08:46:16Z</time>
      </trkpt>
      <trkpt lat="46.68592" lon="4.6292">
        <ele>327</ele>
        <time>2020-05-30T08:46:51Z</time>
      </trkpt>
      <trkpt lat="46.6859" lon="4.62898">
        <ele>326</ele>
        <time>2020-05-30T08:47:11Z</time>
      </trkpt>
      <trkpt lat="46.68569" lon="4.62871">
        <ele>325</ele>
        <time>2020-05-30T08:47:49Z</time>
      </trkpt>
      <trkpt lat="46.6856" lon="4.62856">
        <ele>324</ele>
        <time>2020-05-30T08:48:07Z</time>
      </trkpt>
      <trkpt lat="46.68558" lon="4.62825">
        <ele>323</ele>
        <time>2020-05-30T08:48:36Z</time>
      </trkpt>
      <trkpt lat="46.68558" lon="4.62794">
        <ele>321</ele>
        <time>2020-05-30T08:49:04Z</time>
      </trkpt>
      <trkpt lat="46.68558" lon="4.62779">
        <ele>320</ele>
        <time>2020-05-30T08:49:18Z</time>
      </trkpt>
      <trkpt lat="46.68537" lon="4.62744">
        <ele>317</ele>
        <time>2020-05-30T08:50:00Z</time>
      </trkpt>
      <trkpt lat="46.68515" lon="4.6272">
        <ele>314</ele>
        <time>2020-05-30T08:50:37Z</time>
      </trkpt>
      <trkpt lat="46.68501" lon="4.62709">
        <ele>313</ele>
        <time>2020-05-30T08:50:58Z</time>
      </trkpt>
      <trkpt lat="46.68493" lon="4.62685">
        <ele>309</ele>
        <time>2020-05-30T08:51:23Z</time>
      </trkpt>
      <trkpt lat="46.68484" lon="4.62664">
        <ele>306</ele>
        <time>2020-05-30T08:51:45Z</time>
      </trkpt>
      <trkpt lat="46.68474" lon="4.62624">
        <ele>303</ele>
        <time>2020-05-30T08:52:24Z</time>
      </trkpt>
      <trkpt lat="46.68469" lon="4.626">
        <ele>301</ele>
        <time>2020-05-30T08:52:47Z</time>
      </trkpt>
      <trkpt lat="46.68466" lon="4.6257">
        <ele>300</ele>
        <time>2020-05-30T08:53:15Z</time>
      </trkpt>
      <trkpt lat="46.68468" lon="4.62541">
        <ele>299</ele>
        <time>2020-05-30T08:53:42Z</time>
      </trkpt>
      <trkpt lat="46.68472" lon="4.6251">
        <ele>299</ele>
        <time>2020-05-30T08:54:10Z</time>
      </trkpt>
      <trkpt lat="46.6848" lon="4.62493">
        <ele>299</ele>
        <time>2020-05-30T08:54:29Z</time>
      </trkpt>
      <trkpt lat="46.68495" lon="4.62457">
        <ele>299</ele>
        <time>2020-05-30T08:55:08Z</time>
      </trkpt>
      <trkpt lat="46.68508" lon="4.62423">
        <ele>299</ele>
        <time>2020-05-30T08:55:44Z</time>
      </trkpt>
      <trkpt lat="46.68508" lon="4.624">
        <ele>299</ele>
        <time>2020-05-30T08:56:05Z</time>
      </trkpt>
      <trkpt lat="46.68494" lon="4.62336">
        <ele>297</ele>
        <time>2020-05-30T08:57:06Z</time>
      </trkpt>
      <trkpt lat="46.68483" lon="4.62312">
        <ele>297</ele>
        <time>2020-05-30T08:57:33Z</time>
      </trkpt>
      <trkpt lat="46.68463" lon="4.62285">
        <ele>295</ele>
        <time>2020-05-30T08:58:09Z</time>
      </trkpt>
      <trkpt lat="46.68446" lon="4.62264">
        <ele>294</ele>
        <time>2020-05-30T08:58:39Z</time>
      </trkpt>
      <trkpt lat="46.68433" lon="4.6224">
        <ele>293</ele>
        <time>2020-05-30T08:59:07Z</time>
      </trkpt>
      <trkpt lat="46.68422" lon="4.62192">
        <ele>293</ele>
        <time>2020-05-30T08:59:53Z</time>
      </trkpt>
      <trkpt lat="46.68417" lon="4.62164">
        <ele>293</ele>
        <time>2020-05-30T09:00:19Z</time>
      </trkpt>
      <trkpt lat="46.68416" lon="4.6211">
        <ele>295</ele>
        <time>2020-05-30T09:01:09Z</time>
      </trkpt>
      <trkpt lat="46.68414" lon="4.62067">
        <ele>296</ele>
        <time>2020-05-30T09:01:48Z</time>
      </trkpt>
      <trkpt lat="46.68403" lon="4.62005">
        <ele>294</ele>
        <time>2020-05-30T09:02:47Z</time>
      </trkpt>
      <trkpt lat="46.68393" lon="4.61959">
        <ele>294</ele>
        <time>2020-05-30T09:03:31Z</time>
      </trkpt>
      <trkpt lat="46.68379" lon="4.61912">
        <ele>293</ele>
        <time>2020-05-30T09:04:18Z</time>
      </trkpt>
      <trkpt lat="46.68367" lon="4.61862">
        <ele>292</ele>
        <time>2020-05-30T09:05:07Z</time>
      </trkpt>
      <trkpt lat="46.6836" lon="4.61829">
        <ele>292</ele>
        <time>2020-05-30T09:05:38Z</time>
      </trkpt>
      <trkpt lat="46.68355" lon="4.61787">
        <ele>292</ele>
        <time>2020-05-30T09:06:17Z</time>
      </trkpt>
      <trkpt lat="46.68351" lon="4.61718">
        <ele>293</ele>
        <time>2020-05-30T09:07:21Z</time>
      </trkpt>
      <trkpt lat="46.68344" lon="4.61682">
        <ele>294</ele>
        <time>2020-05-30T09:07:55Z</time>
      </trkpt>
      <trkpt lat="46.68322" lon="4.61632">
        <ele>293</ele>
        <time>2020-05-30T09:08:49Z</time>
      </trkpt>
      <trkpt lat="46.68312" lon="4.61599">
        <ele>291</ele>
        <time>2020-05-30T09:09:22Z</time>
      </trkpt>
      <trkpt lat="46.68302" lon="4.61575">
        <ele>290</ele>
        <time>2020-05-30T09:09:48Z</time>
      </trkpt>
      <trkpt lat="46.68263" lon="4.61507">
        <ele>284</ele>
        <time>2020-05-30T09:11:09Z</time>
      </trkpt>
      <trkpt lat="46.68246" lon="4.61474">
        <ele>280</ele>
        <time>2020-05-30T09:11:47Z</time>
      </trkpt>
      <trkpt lat="46.68238" lon="4.61458">
        <ele>278</ele>
        <time>2020-05-30T09:12:05Z</time>
      </trkpt>
      <trkpt lat="46.68219" lon="4.61415">
        <ele>273</ele>
        <time>2020-05-30T09:12:52Z</time>
      </trkpt>
      <trkpt lat="46.68209" lon="4.61397">
        <ele>271</ele>
        <time>2020-05-30T09:13:13Z</time>
      </trkpt>
      <trkpt lat="46.68195" lon="4.6138">
        <ele>269</ele>
        <time>2020-05-30T09:13:37Z</time>
      </trkpt>
      <trkpt lat="46.68185" lon="4.61374">
        <ele>268</ele>
        <time>2020-05-30T09:13:52Z</time>
      </trkpt>
      <trkpt lat="46.6817" lon="4.61373">
        <ele>267</ele>
        <time>2020-05-30T09:14:12Z</time>
      </trkpt>
      <trkpt lat="46.68135" lon="4.61361">
        <ele>267</ele>
        <time>2020-05-30T09:15:00Z</time>
      </trkpt>
      <trkpt lat="46.68083" lon="4.61344">
        <ele>268</ele>
        <time>2020-05-30T09:16:11Z</time>
      </trkpt>
      <trkpt lat="46.68084" lon="4.61354">
        <ele>268</ele>
        <time>2020-05-30T09:16:20Z</time>
      </trkpt>
      <trkpt lat="46.68081" lon="4.61366">
        <ele>268</ele>
        <time>2020-05-30T09:16:32Z</time>
      </trkpt>
      <trkpt lat="46.68076" lon="4.61382">
        <ele>269</ele>
        <time>2020-05-30T09:16:48Z</time>
      </trkpt>
      <trkpt lat="46.68057" lon="4.61407">
        <ele>270</ele>
        <time>2020-05-30T09:17:22Z</time>
      </trkpt>
      <trkpt lat="46.68037" lon="4.61422">
        <ele>272</ele>
        <time>2020-05-30T09:17:52Z</time>
      </trkpt>
      <trkpt lat="46.6802" lon="4.61428">
        <ele>273</ele>
        <time>2020-05-30T09:18:15Z</time>
      </trkpt>
      <trkpt lat="46.68002" lon="4.61446">
        <ele>275</ele>
        <time>2020-05-30T09:18:45Z</time>
      </trkpt>
      <trkpt lat="46.67949" lon="4.61486">
        <ele>280</ele>
        <time>2020-05-30T09:20:04Z</time>
      </trkpt>
      <trkpt lat="46.67914" lon="4.61521">
        <ele>285</ele>
        <time>2020-05-30T09:21:01Z</time>
      </trkpt>
      <trkpt lat="46.67821" lon="4.6157">
        <ele>297</ele>
        <time>2020-05-30T09:23:13Z</time>
      </trkpt>
      <trkpt lat="46.67809" lon="4.61577">
        <ele>299</ele>
        <time>2020-05-30T09:23:30Z</time>
      </trkpt>
      <trkpt lat="46.67747" lon="4.616">
        <ele>308</ele>
        <time>2020-05-30T09:24:56Z</time>
      </trkpt>
      <trkpt lat="46.67711" lon="4.61627">
        <ele>313</ele>
        <time>2020-05-30T09:25:50Z</time>
      </trkpt>
      <trkpt lat="46.67713" lon="4.61648">
        <ele>314</ele>
        <time>2020-05-30T09:26:09Z</time>
      </trkpt>
      <trkpt lat="46.67724" lon="4.61689">
        <ele>315</ele>
        <time>2020-05-30T09:26:49Z</time>
      </trkpt>
      <trkpt lat="46.67785" lon="4.61857">
        <ele>317</ele>
        <time>2020-05-30T09:29:43Z</time>
      </trkpt>
      <trkpt lat="46.67794" lon="4.61882">
        <ele>317</ele>
        <time>2020-05-30T09:30:09Z</time>
      </trkpt>
      <trkpt lat="46.678" lon="4.61918">
        <ele>318</ele>
        <time>2020-05-30T09:30:43Z</time>
      </trkpt>
      <trkpt lat="46.67817" lon="4.6198">
        <ele>319</ele>
        <time>2020-05-30T09:31:44Z</time>
      </trkpt>
      <trkpt lat="46.67823" lon="4.61996">
        <ele>319</ele>
        <time>2020-05-30T09:32:01Z</time>
      </trkpt>
      <trkpt lat="46.67823" lon="4.62013">
        <ele>320</ele>
        <time>2020-05-30T09:32:16Z</time>
      </trkpt>
      <trkpt lat="46.67817" lon="4.6209">
        <ele>326</ele>
        <time>2020-05-30T09:33:27Z</time>
      </trkpt>
      <trkpt lat="46.67819" lon="4.62108">
        <ele>327</ele>
        <time>2020-05-30T09:33:44Z</time>
      </trkpt>
      <trkpt lat="46.6782" lon="4.62126">
        <ele>328</ele>
        <time>2020-05-30T09:34:01Z</time>
      </trkpt>
      <trkpt lat="46.67828" lon="4.62145">
        <ele>328</ele>
        <time>2020-05-30T09:34:21Z</time>
      </trkpt>
      <trkpt lat="46.67799" lon="4.62149">
        <ele>331</ele>
        <time>2020-05-30T09:35:00Z</time>
      </trkpt>
      <trkpt lat="46.67764" lon="4.62169">
        <ele>335</ele>
        <time>2020-05-30T09:35:50Z</time>
      </trkpt>
      <trkpt lat="46.67744" lon="4.62177">
        <ele>338</ele>
        <time>2020-05-30T09:36:18Z</time>
      </trkpt>
      <trkpt lat="46.67702" lon="4.62184">
        <ele>344</ele>
        <time>2020-05-30T09:37:14Z</time>
      </trkpt>
      <trkpt lat="46.67689" lon="4.62189">
        <ele>345</ele>
        <time>2020-05-30T09:37:32Z</time>
      </trkpt>
      <trkpt lat="46.67673" lon="4.62201">
        <ele>348</ele>
        <time>2020-05-30T09:37:56Z</time>
      </trkpt>
      <trkpt lat="46.6764" lon="4.62205">
        <ele>351</ele>
        <time>2020-05-30T09:38:40Z</time>
      </trkpt>
      <trkpt lat="46.67617" lon="4.62211">
        <ele>353</ele>
        <time>2020-05-30T09:39:11Z</time>
      </trkpt>
      <trkpt lat="46.67592" lon="4.62224">
        <ele>356</ele>
        <time>2020-05-30T09:39:47Z</time>
      </trkpt>
      <trkpt lat="46.67567" lon="4.62228">
        <ele>358</ele>
        <time>2020-05-30T09:40:20Z</time>
      </trkpt>
      <trkpt lat="46.67525" lon="4.62224">
        <ele>361</ele>
        <time>2020-05-30T09:41:17Z</time>
      </trkpt>
      <trkpt lat="46.67507" lon="4.62218">
        <ele>362</ele>
        <time>2020-05-30T09:41:41Z</time>
      </trkpt>
      <trkpt lat="46.67483" lon="4.62207">
        <ele>364</ele>
        <time>2020-05-30T09:42:15Z</time>
      </trkpt>
      <trkpt lat="46.67444" lon="4.622">
        <ele>366</ele>
        <time>2020-05-30T09:43:07Z</time>
      </trkpt>
      <trkpt lat="46.67431" lon="4.6219">
        <ele>367</ele>
        <time>2020-05-30T09:43:27Z</time>
      </trkpt>
      <trkpt lat="46.67406" lon="4.62193">
        <ele>368</ele>
        <time>2020-05-30T09:44:00Z</time>
      </trkpt>
      <trkpt lat="46.67367" lon="4.62184">
        <ele>370</ele>
        <time>2020-05-30T09:44:53Z</time>
      </trkpt>
      <trkpt lat="46.67341" lon="4.6218">
        <ele>371</ele>
        <time>2020-05-30T09:45:28Z</time>
      </trkpt>
      <trkpt lat="46.67317" lon="4.62182">
        <ele>371</ele>
        <time>2020-05-30T09:46:00Z</time>
      </trkpt>
      <trkpt lat="46.67303" lon="4.62182">
        <ele>371</ele>
        <time>2020-05-30T09:46:19Z</time>
      </trkpt>
      <trkpt lat="46.67289" lon="4.6218">
        <ele>371</ele>
        <time>2020-05-30T09:46:37Z</time>
      </trkpt>
      <trkpt lat="46.6725" lon="4.62163">
        <ele>371</ele>
        <time>2020-05-30T09:47:32Z</time>
      </trkpt>
      <trkpt lat="46.67227" lon="4.62151">
        <ele>371</ele>
        <time>2020-05-30T09:48:04Z</time>
      </trkpt>
      <trkpt lat="46.67196" lon="4.62146">
        <ele>370</ele>
        <time>2020-05-30T09:48:46Z</time>
      </trkpt>
      <trkpt lat="46.6718" lon="4.62143">
        <ele>370</ele>
        <time>2020-05-30T09:49:08Z</time>
      </trkpt>
      <trkpt lat="46.67128" lon="4.62116">
        <ele>369</ele>
        <time>2020-05-30T09:50:21Z</time>
      </trkpt>
      <trkpt lat="46.67072" lon="4.62088">
        <ele>368</ele>
        <time>2020-05-30T09:51:40Z</time>
      </trkpt>
      <trkpt lat="46.67025" lon="4.62079">
        <ele>368</ele>
        <time>2020-05-30T09:52:43Z</time>
      </trkpt>
      <trkpt lat="46.66971" lon="4.62066">
        <ele>367</ele>
        <time>2020-05-30T09:53:57Z</time>
      </trkpt>
      <trkpt lat="46.66909" lon="4.62057">
        <ele>366</ele>
        <time>2020-05-30T09:55:20Z</time>
      </trkpt>
      <trkpt lat="46.66864" lon="4.62054">
        <ele>363</ele>
        <time>2020-05-30T09:56:20Z</time>
      </trkpt>
      <trkpt lat="46.66831" lon="4.62043">
        <ele>361</ele>
        <time>2020-05-30T09:57:05Z</time>
      </trkpt>
      <trkpt lat="46.66822" lon="4.62044">
        <ele>360</ele>
        <time>2020-05-30T09:57:17Z</time>
      </trkpt>
      <trkpt lat="46.66809" lon="4.62056">
        <ele>360</ele>
        <time>2020-05-30T09:57:38Z</time>
      </trkpt>
      <trkpt lat="46.66804" lon="4.62071">
        <ele>360</ele>
        <time>2020-05-30T09:57:53Z</time>
      </trkpt>
      <trkpt lat="46.66795" lon="4.6208">
        <ele>360</ele>
        <time>2020-05-30T09:58:07Z</time>
      </trkpt>
      <trkpt lat="46.66793" lon="4.62092">
        <ele>360</ele>
        <time>2020-05-30T09:58:19Z</time>
      </trkpt>
      <trkpt lat="46.66788" lon="4.62101">
        <ele>361</ele>
        <time>2020-05-30T09:58:29Z</time>
      </trkpt>
      <trkpt lat="46.66776" lon="4.6211">
        <ele>361</ele>
        <time>2020-05-30T09:58:47Z</time>
      </trkpt>
      <trkpt lat="46.6676" lon="4.62115">
        <ele>360</ele>
        <time>2020-05-30T09:59:09Z</time>
      </trkpt>
      <trkpt lat="46.66748" lon="4.62118">
        <ele>360</ele>
        <time>2020-05-30T09:59:25Z</time>
      </trkpt>
      <trkpt lat="46.66674" lon="4.62115">
        <ele>364</ele>
        <time>2020-05-30T10:01:04Z</time>
      </trkpt>
      <trkpt lat="46.66629" lon="4.62104">
        <ele>365</ele>
        <time>2020-05-30T10:02:05Z</time>
      </trkpt>
      <trkpt lat="46.66594" lon="4.62098">
        <ele>367</ele>
        <time>2020-05-30T10:02:52Z</time>
      </trkpt>
      <trkpt lat="46.66563" lon="4.62097">
        <ele>368</ele>
        <time>2020-05-30T10:03:33Z</time>
      </trkpt>
      <trkpt lat="46.66534" lon="4.62097">
        <ele>369</ele>
        <time>2020-05-30T10:04:12Z</time>
      </trkpt>
      <trkpt lat="46.66472" lon="4.62119">
        <ele>369</ele>
        <time>2020-05-30T10:05:37Z</time>
      </trkpt>
      <trkpt lat="46.66455" lon="4.62133">
        <ele>369</ele>
        <time>2020-05-30T10:06:03Z</time>
      </trkpt>
      <trkpt lat="46.66423" lon="4.62163">
        <ele>369</ele>
        <time>2020-05-30T10:06:54Z</time>
      </trkpt>
      <trkpt lat="46.66411" lon="4.6217">
        <ele>369</ele>
        <time>2020-05-30T10:07:11Z</time>
      </trkpt>
      <trkpt lat="46.66394" lon="4.62174">
        <ele>368</ele>
        <time>2020-05-30T10:07:34Z</time>
      </trkpt>
      <trkpt lat="46.66346" lon="4.62177">
        <ele>364</ele>
        <time>2020-05-30T10:08:39Z</time>
      </trkpt>
      <trkpt lat="46.66312" lon="4.6217">
        <ele>360</ele>
        <time>2020-05-30T10:09:24Z</time>
      </trkpt>
      <trkpt lat="46.66307" lon="4.622">
        <ele>361</ele>
        <time>2020-05-30T10:09:53Z</time>
      </trkpt>
      <trkpt lat="46.66294" lon="4.62228">
        <ele>362</ele>
        <time>2020-05-30T10:10:24Z</time>
      </trkpt>
      <trkpt lat="46.66278" lon="4.62255">
        <ele>362</ele>
        <time>2020-05-30T10:10:56Z</time>
      </trkpt>
      <trkpt lat="46.66245" lon="4.62295">
        <ele>361</ele>
        <time>2020-05-30T10:11:54Z</time>
      </trkpt>
      <trkpt lat="46.6623" lon="4.62337">
        <ele>364</ele>
        <time>2020-05-30T10:12:37Z</time>
      </trkpt>
      <trkpt lat="46.66223" lon="4.62375">
        <ele>366</ele>
        <time>2020-05-30T10:13:13Z</time>
      </trkpt>
      <trkpt lat="46.6622" lon="4.62422">
        <ele>370</ele>
        <time>2020-05-30T10:13:56Z</time>
      </trkpt>
      <trkpt lat="46.66217" lon="4.62431">
        <ele>370</ele>
        <time>2020-05-30T10:14:05Z</time>
      </trkpt>
      <trkpt lat="46.66207" lon="4.62443">
        <ele>370</ele>
        <time>2020-05-30T10:14:23Z</time>
      </trkpt>
      <trkpt lat="46.66148" lon="4.62489">
        <ele>367</ele>
        <time>2020-05-30T10:15:52Z</time>
      </trkpt>
      <trkpt lat="46.66141" lon="4.625">
        <ele>368</ele>
        <time>2020-05-30T10:16:06Z</time>
      </trkpt>
      <trkpt lat="46.66137" lon="4.62511">
        <ele>368</ele>
        <time>2020-05-30T10:16:17Z</time>
      </trkpt>
      <trkpt lat="46.66137" lon="4.62526">
        <ele>368</ele>
        <time>2020-05-30T10:16:31Z</time>
      </trkpt>
      <trkpt lat="46.66143" lon="4.62555">
        <ele>371</ele>
        <time>2020-05-30T10:16:59Z</time>
      </trkpt>
      <trkpt lat="46.66166" lon="4.62629">
        <ele>375</ele>
        <time>2020-05-30T10:18:13Z</time>
      </trkpt>
      <trkpt lat="46.66187" lon="4.62674">
        <ele>379</ele>
        <time>2020-05-30T10:19:03Z</time>
      </trkpt>
      <trkpt lat="46.66199" lon="4.62694">
        <ele>381</ele>
        <time>2020-05-30T10:19:27Z</time>
      </trkpt>
      <trkpt lat="46.66216" lon="4.62713">
        <ele>383</ele>
        <time>2020-05-30T10:19:56Z</time>
      </trkpt>
      <trkpt lat="46.66238" lon="4.62727">
        <ele>385</ele>
        <time>2020-05-30T10:20:28Z</time>
      </trkpt>
      <trkpt lat="46.6627" lon="4.62746">
        <ele>387</ele>
        <time>2020-05-30T10:21:14Z</time>
      </trkpt>
      <trkpt lat="46.66306" lon="4.62781">
        <ele>386</ele>
        <time>2020-05-30T10:22:12Z</time>
      </trkpt>
      <trkpt lat="46.66334" lon="4.62818">
        <ele>384</ele>
        <time>2020-05-30T10:23:02Z</time>
      </trkpt>
      <trkpt lat="46.66349" lon="4.62842">
        <ele>380</ele>
        <time>2020-05-30T10:23:32Z</time>
      </trkpt>
      <trkpt lat="46.66359" lon="4.62852">
        <ele>379</ele>
        <time>2020-05-30T10:23:48Z</time>
      </trkpt>
      <trkpt lat="46.66428" lon="4.62881">
        <ele>371</ele>
        <time>2020-05-30T10:25:24Z</time>
      </trkpt>
      <trkpt lat="46.66467" lon="4.62902">
        <ele>366</ele>
        <time>2020-05-30T10:26:19Z</time>
      </trkpt>
      <trkpt lat="46.66523" lon="4.62908">
        <ele>363</ele>
        <time>2020-05-30T10:27:34Z</time>
      </trkpt>
      <trkpt lat="46.66534" lon="4.62913">
        <ele>361</ele>
        <time>2020-05-30T10:27:50Z</time>
      </trkpt>
      <trkpt lat="46.66539" lon="4.62932">
        <ele>359</ele>
        <time>2020-05-30T10:28:08Z</time>
      </trkpt>
      <trkpt lat="46.66559" lon="4.63048">
        <ele>343</ele>
        <time>2020-05-30T10:29:58Z</time>
      </trkpt>
      <trkpt lat="46.66581" lon="4.63151">
        <ele>332</ele>
        <time>2020-05-30T10:31:37Z</time>
      </trkpt>
      <trkpt lat="46.66601" lon="4.63218">
        <ele>325</ele>
        <time>2020-05-30T10:32:43Z</time>
      </trkpt>
      <trkpt lat="46.66629" lon="4.63352">
        <ele>317</ele>
        <time>2020-05-30T10:34:52Z</time>
      </trkpt>
      <trkpt lat="46.66638" lon="4.63396">
        <ele>316</ele>
        <time>2020-05-30T10:35:34Z</time>
      </trkpt>
      <trkpt lat="46.66646" lon="4.63414">
        <ele>316</ele>
        <time>2020-05-30T10:35:53Z</time>
      </trkpt>
      <trkpt lat="46.66665" lon="4.63497">
        <ele>315</ele>
        <time>2020-05-30T10:37:14Z</time>
      </trkpt>
      <trkpt lat="46.66674" lon="4.63552">
        <ele>312</ele>
        <time>2020-05-30T10:38:05Z</time>
      </trkpt>
      <trkpt lat="46.66677" lon="4.63617">
        <ele>311</ele>
        <time>2020-05-30T10:39:05Z</time>
      </trkpt>
      <trkpt lat="46.6668" lon="4.63631">
        <ele>311</ele>
        <time>2020-05-30T10:39:18Z</time>
      </trkpt>
      <trkpt lat="46.66709" lon="4.63699">
        <ele>309</ele>
        <time>2020-05-30T10:40:32Z</time>
      </trkpt>
      <trkpt lat="46.66717" lon="4.6371">
        <ele>309</ele>
        <time>2020-05-30T10:40:46Z</time>
      </trkpt>
      <trkpt lat="46.6673" lon="4.63715">
        <ele>309</ele>
        <time>2020-05-30T10:41:04Z</time>
      </trkpt>
      <trkpt lat="46.66737" lon="4.63715">
        <ele>308</ele>
        <time>2020-05-30T10:41:14Z</time>
      </trkpt>
      <trkpt lat="46.66743" lon="4.63719">
        <ele>308</ele>
        <time>2020-05-30T10:41:22Z</time>
      </trkpt>
      <trkpt lat="46.66747" lon="4.63729">
        <ele>308</ele>
        <time>2020-05-30T10:41:33Z</time>
      </trkpt>
      <trkpt lat="46.66747" lon="4.63756">
        <ele>308</ele>
        <time>2020-05-30T10:41:58Z</time>
      </trkpt>
      <trkpt lat="46.66742" lon="4.63819">
        <ele>311</ele>
        <time>2020-05-30T10:42:56Z</time>
      </trkpt>
      <trkpt lat="46.6674" lon="4.63834">
        <ele>311</ele>
        <time>2020-05-30T10:43:10Z</time>
      </trkpt>
      <trkpt lat="46.66779" lon="4.63853">
        <ele>312</ele>
        <time>2020-05-30T10:44:05Z</time>
      </trkpt>
      <trkpt lat="46.66791" lon="4.63859">
        <ele>313</ele>
        <time>2020-05-30T10:44:22Z</time>
      </trkpt>
      <trkpt lat="46.66799" lon="4.6387">
        <ele>314</ele>
        <time>2020-05-30T10:44:36Z</time>
      </trkpt>
      <trkpt lat="46.66805" lon="4.63886">
        <ele>315</ele>
        <time>2020-05-30T10:44:53Z</time>
      </trkpt>
      <trkpt lat="46.66809" lon="4.63911">
        <ele>317</ele>
        <time>2020-05-30T10:45:17Z</time>
      </trkpt>
      <trkpt lat="46.66811" lon="4.63916">
        <ele>317</ele>
        <time>2020-05-30T10:45:22Z</time>
      </trkpt>
      <trkpt lat="46.66821" lon="4.63927">
        <ele>318</ele>
        <time>2020-05-30T10:45:39Z</time>
      </trkpt>
      <trkpt lat="46.66854" lon="4.63945">
        <ele>319</ele>
        <time>2020-05-30T10:46:26Z</time>
      </trkpt>
      <trkpt lat="46.6689" lon="4.6395">
        <ele>320</ele>
        <time>2020-05-30T10:47:14Z</time>
      </trkpt>
      <trkpt lat="46.6692" lon="4.63952">
        <ele>321</ele>
        <time>2020-05-30T10:47:54Z</time>
      </trkpt>
      <trkpt lat="46.66972" lon="4.63968">
        <ele>325</ele>
        <time>2020-05-30T10:49:05Z</time>
      </trkpt>
      <trkpt lat="46.6699" lon="4.63977">
        <ele>327</ele>
        <time>2020-05-30T10:49:30Z</time>
      </trkpt>
      <trkpt lat="46.67003" lon="4.63987">
        <ele>328</ele>
        <time>2020-05-30T10:49:50Z</time>
      </trkpt>
    </trkseg>
  </trk>
</gpx>